VDPP/PNH METAR and TAF weather

Enter ICAO airport designator
Station Type Date Time Source
VDPP METAR 2021/09/24 06:30 UTC NOAA

VDPP 240630Z 24010KT 200V280 9999 SCT017 SCT040 31/23 Q1005


Station Type Date Time Source
VDPP Decoded METAR 2021/09/24 06:30 UTC NOAA

Phnom-Penh / Pochentong, Cambodia (VDPP) 11-33N 104-51E 10M
Sep 24, 2021 - 02:30 AM EDT / 2021.09.24 0630 UTC
Wind: from the WSW (240 degrees) at 12 MPH (10 KT) (direction variable):0
Visibility: greater than 7 mile(s):0
Sky conditions: partly cloudy
Temperature: 87 F (31 C)
Heat index: 93.9 F (34.4 C):1
Dew Point: 73 F (23 C)
Relative Humidity: 62%
Pressure (altimeter): 29.68 in. Hg (1005 hPa)
ob: VDPP 240630Z 24010KT 200V280 9999 SCT017 SCT040 31/23 Q1005
cycle: 6

Station Type Date Time Source
VDPP TAF 2021/09/24 06:00 UTC NOAA

TAF VDPP 240500Z 2406/2424 23008KT 9999 SCT017 SCT040
TEMPO 2407/2412 5000 TSRA SCT015 FEW017CB BKN040

Example: see airport list